Time;durP1;ratioP1;P1;durP2;ratioP2;P2;SDS_P1;SDS_P2;PMS_P1;PMS_P2;Temp;Humidity;BMP_temperature;BMP_pressure;BME280_temperature;BME280_humidity;BME280_pressure;Samples;Min_cycle;Max_cycle;Signal;HPM_P1;HPM_P2
2022/05/25 00:01:04;;;;;;;4.43;2.35;;;12.20;99.90;;;;;;5092096;28;20473;-77
2022/05/25 00:03:30;;;;;;;3.22;2.70;;;12.20;99.90;;;;;;5091594;28;20040;-76
2022/05/25 00:05:57;;;;;;;5.07;3.05;;;12.20;99.90;;;;;;5091842;28;20028;-76
2022/05/25 00:08:23;;;;;;;2.65;2.45;;;12.10;99.90;;;;;;5092998;28;20020;-78
2022/05/25 00:10:49;;;;;;;3.00;2.70;;;12.10;99.90;;;;;;5091588;28;20097;-76
2022/05/25 00:13:15;;;;;;;3.95;2.65;;;12.00;99.90;;;;;;5092112;28;20472;-77
2022/05/25 00:15:40;;;;;;;2.97;2.55;;;12.00;99.90;;;;;;5092082;28;20028;-77
2022/05/25 00:18:06;;;;;;;5.93;3.20;;;11.90;99.90;;;;;;5091097;28;20024;-76
2022/05/25 00:20:32;;;;;;;5.18;2.88;;;11.90;99.90;;;;;;5091830;28;20024;-77
2022/05/25 00:22:57;;;;;;;3.00;2.75;;;11.80;99.90;;;;;;5091113;28;20040;-78
2022/05/25 00:25:30;;;;;;;4.18;2.70;;;11.80;99.90;;;;;;5091642;28;20085;-76
2022/05/25 00:27:57;;;;;;;6.38;3.03;;;11.70;99.90;;;;;;5091916;28;20024;-77
2022/05/25 00:30:25;;;;;;;6.43;3.75;;;11.70;99.90;;;;;;5094589;28;20044;-77
2022/05/25 00:32:51;;;;;;;3.50;3.20;;;11.70;99.90;;;;;;5094997;28;20046;-77
2022/05/25 00:35:19;;;;;;;3.55;2.80;;;11.60;99.90;;;;;;5095227;28;20024;-77
2022/05/25 00:37:45;;;;;;;3.50;3.20;;;11.50;99.90;;;;;;5094340;28;20119;-78
2022/05/25 00:40:16;;;;;;;4.70;2.97;;;11.50;99.90;;;;;;5094829;28;20059;-77
2022/05/25 00:42:42;;;;;;;3.83;2.58;;;11.60;99.90;;;;;;5095122;28;20043;-76
2022/05/25 00:45:08;;;;;;;4.05;2.80;;;11.60;99.90;;;;;;5075999;28;20115;-78
2022/05/25 00:47:34;;;;;;;4.22;2.92;;;11.50;99.90;;;;;;5095083;28;20028;-76
2022/05/25 00:50:00;;;;;;;4.07;3.05;;;11.50;99.90;;;;;;5094971;28;20034;-76
2022/05/25 00:52:26;;;;;;;5.13;2.92;;;11.50;99.90;;;;;;5094231;28;20024;-76
2022/05/25 00:55:00;;;;;;;4.22;3.35;;;11.50;99.90;;;;;;5094594;28;20024;-77
2022/05/25 00:57:32;;;;;;;5.22;2.90;;;11.50;99.90;;;;;;5094638;28;20034;-77
2022/05/25 01:00:04;;;;;;;6.18;3.75;;;11.50;99.90;;;;;;5093783;28;20341;-76
2022/05/25 01:02:32;;;;;;;6.47;3.67;;;11.50;99.90;;;;;;5094673;28;20036;-78
2022/05/25 01:04:58;;;;;;;4.93;2.55;;;11.40;99.90;;;;;;5094545;28;20059;-77
2022/05/25 01:07:55;;;;;;;3.92;3.22;;;11.40;99.90;;;;;;5094170;28;20456;-76
2022/05/25 01:10:37;;;;;;;4.97;3.20;;;11.40;99.90;;;;;;5098135;28;20020;-78
2022/05/25 01:13:35;;;;;;;3.65;3.03;;;11.40;99.90;;;;;;5097945;28;20115;-77
2022/05/25 01:16:15;;;;;;;4.13;3.10;;;11.40;99.90;;;;;;5094311;28;20031;-78
2022/05/25 01:18:52;;;;;;;5.28;3.00;;;11.30;99.90;;;;;;5094669;28;20058;-77
2022/05/25 01:21:40;;;;;;;7.18;3.58;;;11.30;99.90;;;;;;5098041;28;20057;-78
2022/05/25 01:24:25;;;;;;;6.65;3.03;;;11.30;99.90;;;;;;5095140;28;20503;-77
2022/05/25 01:26:53;;;;;;;4.43;3.20;;;11.30;99.90;;;;;;5105941;28;20016;-79
2022/05/25 01:29:27;;;;;;;7.88;3.20;;;11.30;99.90;;;;;;5095378;28;20028;-78
2022/05/25 01:32:11;;;;;;;8.05;3.45;;;11.30;99.90;;;;;;5093924;28;20024;-76
2022/05/25 01:34:54;;;;;;;4.13;3.63;;;11.30;99.90;;;;;;5093327;28;20518;-76
2022/05/25 01:37:46;;;;;;;6.78;3.70;;;11.30;99.90;;;;;;5093995;28;20025;-76
2022/05/25 01:40:34;;;;;;;7.28;3.83;;;11.30;99.90;;;;;;5093601;28;20132;-78
2022/05/25 01:43:06;;;;;;;5.97;4.05;;;11.30;99.90;;;;;;5093778;28;20488;-76
2022/05/25 01:45:36;;;;;;;5.32;3.97;;;11.30;99.90;;;;;;5094031;28;20430;-76
2022/05/25 01:48:05;;;;;;;8.95;4.57;;;11.30;99.90;;;;;;5093123;28;20022;-78
2022/05/25 01:50:47;;;;;;;7.65;5.22;;;11.30;99.90;;;;;;5093796;28;20443;-78
2022/05/25 01:53:16;;;;;;;10.52;4.93;;;11.30;99.90;;;;;;5093924;28;20028;-76
2022/05/25 01:55:51;;;;;;;7.55;4.82;;;11.30;99.90;;;;;;5093642;28;20016;-77
2022/05/25 01:58:20;;;;;;;11.95;5.65;;;11.30;99.90;;;;;;5093804;28;20048;-76
2022/05/25 02:00:49;;;;;;;7.70;5.15;;;11.30;99.90;;;;;;5094095;28;20103;-77
2022/05/25 02:06:28;;;;;;;9.48;5.45;;;11.30;99.90;;;;;;5093918;28;20035;-76
2022/05/25 02:09:08;;;;;;;12.77;5.45;;;11.20;99.90;;;;;;5093086;28;20103;-76
2022/05/25 02:11:43;;;;;;;10.25;5.80;;;11.20;99.90;;;;;;5093857;28;20114;-77
2022/05/25 02:14:47;;;;;;;6.25;4.63;;;11.20;99.90;;;;;;5092557;28;20118;-76
2022/05/25 02:17:37;;;;;;;9.63;5.25;;;11.20;99.90;;;;;;5092850;28;20133;-76
2022/05/25 02:20:07;;;;;;;10.47;6.17;;;11.20;99.90;;;;;;5093238;28;20067;-76
2022/05/25 02:22:43;;;;;;;8.52;4.53;;;11.20;99.90;;;;;;5092521;28;20352;-77
2022/05/25 02:25:29;;;;;;;10.32;5.60;;;11.20;99.90;;;;;;5093130;28;20051;-78
2022/05/25 02:28:00;;;;;;;6.25;4.93;;;11.10;99.90;;;;;;5093063;28;20031;-76
2022/05/25 02:30:31;;;;;;;11.48;6.00;;;11.10;99.90;;;;;;5092386;28;20020;-77
2022/05/25 02:33:13;;;;;;;8.05;5.60;;;11.10;99.90;;;;;;5092692;28;20130;-76
2022/05/25 02:35:41;;;;;;;9.30;5.50;;;11.10;99.90;;;;;;5092893;28;20024;-77
2022/05/25 02:38:08;;;;;;;10.10;5.22;;;11.10;99.90;;;;;;5092020;28;20387;-76
2022/05/25 02:40:36;;;;;;;9.45;5.43;;;11.00;99.90;;;;;;5093490;28;20027;-76
2022/05/25 02:43:02;;;;;;;12.10;6.00;;;11.00;99.90;;;;;;5092372;28;20036;-76
2022/05/25 02:45:28;;;;;;;9.43;5.50;;;11.00;99.90;;;;;;5092279;28;20031;-77
2022/05/25 02:47:54;;;;;;;9.45;5.40;;;11.00;99.90;;;;;;5093138;28;20028;-77
2022/05/25 02:50:21;;;;;;;13.10;5.93;;;11.00;99.90;;;;;;5092252;28;20035;-78
2022/05/25 02:52:47;;;;;;;6.50;5.47;;;11.00;99.90;;;;;;5091879;28;20028;-78
2022/05/25 02:55:13;;;;;;;6.70;6.03;;;11.00;99.90;;;;;;5092489;28;20497;-78
2022/05/25 02:57:39;;;;;;;12.73;5.90;;;10.90;99.90;;;;;;5092611;28;20059;-78
2022/05/25 03:00:07;;;;;;;8.75;5.95;;;10.90;99.90;;;;;;5092094;28;20028;-77
2022/05/25 03:02:33;;;;;;;6.80;5.43;;;10.90;99.90;;;;;;5092526;28;20047;-80
2022/05/25 03:04:59;;;;;;;10.88;5.63;;;10.90;99.90;;;;;;5091518;28;20020;-79
2022/05/25 03:07:25;;;;;;;7.70;5.38;;;10.90;99.90;;;;;;5092829;28;20476;-78
2022/05/25 03:09:51;;;;;;;7.80;5.65;;;10.80;99.90;;;;;;5092442;28;20020;-79
2022/05/25 03:12:17;;;;;;;9.85;5.65;;;10.80;99.90;;;;;;5091908;28;20038;-79
2022/05/25 03:14:43;;;;;;;14.90;6.30;;;10.80;99.90;;;;;;5093398;28;20016;-77
2022/05/25 03:17:14;;;;;;;7.80;6.22;;;10.70;99.90;;;;;;5103809;28;20024;-78
2022/05/25 03:19:50;;;;;;;6.97;5.90;;;10.80;99.90;;;;;;5091701;28;20365;-79
2022/05/25 03:22:15;;;;;;;13.07;5.63;;;10.80;99.90;;;;;;5092511;28;20032;-79
2022/05/25 03:24:41;;;;;;;9.40;6.45;;;10.80;99.90;;;;;;5092216;28;20479;-78
2022/05/25 03:27:06;;;;;;;8.43;5.88;;;10.80;99.90;;;;;;5106812;28;20073;-78
2022/05/25 03:29:32;;;;;;;8.90;6.38;;;10.80;99.90;;;;;;5092827;28;20484;-78
2022/05/25 03:31:58;;;;;;;10.38;6.80;;;10.80;99.90;;;;;;5108648;28;20008;-79
2022/05/25 03:34:24;;;;;;;9.98;6.80;;;10.80;99.90;;;;;;5094151;28;20027;-77
2022/05/25 03:36:54;;;;;;;13.43;7.18;;;10.80;99.90;;;;;;5091734;28;20131;-77
2022/05/25 03:39:24;;;;;;;9.50;6.80;;;10.80;99.90;;;;;;5092253;28;20052;-77
2022/05/25 03:41:58;;;;;;;15.18;6.88;;;10.90;99.90;;;;;;5091659;28;20085;-79
2022/05/25 03:44:24;;;;;;;14.93;6.80;;;10.90;99.90;;;;;;5092869;28;20040;-77
2022/05/25 03:46:53;;;;;;;9.70;6.75;;;10.80;99.90;;;;;;5091921;28;20101;-78
2022/05/25 03:49:19;;;;;;;14.35;7.55;;;10.90;99.90;;;;;;5092228;28;20064;-79
2022/05/25 03:51:45;;;;;;;10.88;8.02;;;11.70;99.90;;;;;;5092329;28;20073;-77
2022/05/25 03:54:13;;;;;;;11.18;7.70;;;10.90;99.90;;;;;;5091180;28;20020;-78
2022/05/25 03:56:39;;;;;;;8.75;7.90;;;10.90;99.90;;;;;;5091955;28;20029;-78
2022/05/25 03:59:05;;;;;;;9.20;8.18;;;10.90;99.90;;;;;;5091504;28;20048;-78
2022/05/25 04:01:33;;;;;;;11.57;7.78;;;10.90;99.90;;;;;;5091352;28;20421;-78
2022/05/25 04:04:00;;;;;;;12.80;6.45;;;10.90;99.90;;;;;;5095284;28;20051;-78
2022/05/25 04:06:26;;;;;;;8.05;7.00;;;10.90;99.90;;;;;;5095689;28;20514;-79
2022/05/25 04:08:52;;;;;;;9.80;6.97;;;10.90;99.90;;;;;;5094813;28;20031;-78
2022/05/25 04:11:18;;;;;;;10.45;7.13;;;10.90;99.90;;;;;;5095732;28;20028;-78
2022/05/25 04:13:43;;;;;;;8.25;6.97;;;10.90;99.90;;;;;;5095444;28;20055;-78
2022/05/25 04:16:09;;;;;;;8.32;6.85;;;10.90;99.90;;;;;;5076929;28;20074;-79
2022/05/25 04:18:34;;;;;;;10.13;8.02;;;10.90;99.90;;;;;;5095703;28;20030;-79
2022/05/25 04:21:00;;;;;;;10.90;6.95;;;10.90;99.90;;;;;;5095361;28;20023;-78
2022/05/25 04:23:27;;;;;;;13.05;8.35;;;10.90;99.90;;;;;;5094688;28;20114;-79
2022/05/25 04:25:54;;;;;;;9.10;8.00;;;10.90;99.90;;;;;;5094974;28;20028;-78
2022/05/25 04:28:20;;;;;;;9.45;7.35;;;10.90;99.90;;;;;;5095288;28;20028;-79
2022/05/25 04:30:46;;;;;;;15.85;8.57;;;11.00;99.90;;;;;;5095284;28;20081;-79
2022/05/25 04:33:12;;;;;;;11.57;8.50;;;11.00;99.90;;;;;;5095853;28;20028;-81
2022/05/25 04:35:37;;;;;;;11.05;8.32;;;11.10;99.90;;;;;;5098246;28;20024;-79
2022/05/25 04:38:06;;;;;;;11.70;8.95;;;11.10;99.90;;;;;;5096504;28;20440;-81
2022/05/25 04:40:34;;;;;;;10.32;8.00;;;11.20;99.90;;;;;;5096989;28;20498;-81
2022/05/25 04:43:10;;;;;;;11.90;8.90;;;11.30;99.90;;;;;;5096055;28;20040;-78
2022/05/25 04:45:41;;;;;;;18.20;9.50;;;11.40;99.90;;;;;;5097125;28;20087;-78
2022/05/25 04:48:07;;;;;;;13.32;9.63;;;11.50;99.90;;;;;;5096916;28;20044;-78
2022/05/25 04:50:35;;;;;;;14.98;8.80;;;11.50;99.90;;;;;;5097055;28;20020;-79
2022/05/25 04:53:04;;;;;;;8.95;8.15;;;11.60;99.90;;;;;;5097052;28;20031;-80
2022/05/25 04:58:29;;;;;;;19.10;9.73;;;11.70;99.90;;;;;;5057492;28;20150;-78
2022/05/25 05:00:54;;;;;;;15.27;9.73;;;11.70;99.90;;;;;;5094760;28;20111;-79
2022/05/25 05:03:21;;;;;;;10.75;9.73;;;11.70;99.90;;;;;;5094749;28;20185;-79
2022/05/25 05:05:48;;;;;;;13.52;10.10;;;11.70;99.90;;;;;;5093780;28;20035;-78
2022/05/25 05:08:14;;;;;;;11.07;9.73;;;11.80;99.90;;;;;;5094875;28;20027;-79
2022/05/25 05:10:40;;;;;;;16.02;9.27;;;11.80;99.90;;;;;;5094687;28;20409;-78
2022/05/25 05:13:07;;;;;;;13.35;10.63;;;11.80;99.90;;;;;;5093709;28;20067;-78
2022/05/25 05:15:35;;;;;;;14.93;10.30;;;11.90;99.90;;;;;;5093866;28;20016;-78
2022/05/25 05:18:02;;;;;;;12.90;9.98;;;12.00;99.90;;;;;;5094117;28;20472;-78
2022/05/25 05:20:28;;;;;;;15.88;10.57;;;12.00;99.90;;;;;;5094507;28;20529;-79
2022/05/25 05:22:56;;;;;;;14.68;10.60;;;12.10;99.90;;;;;;5096834;28;20050;-77
2022/05/25 05:25:22;;;;;;;13.65;10.45;;;12.10;99.90;;;;;;5092175;28;20052;-79
2022/05/25 05:27:48;;;;;;;15.60;10.55;;;12.20;99.90;;;;;;5092184;28;20062;-78
2022/05/25 05:30:21;;;;;;;14.32;10.95;;;12.20;99.90;;;;;;5093835;28;20029;-80
2022/05/25 05:32:47;;;;;;;13.32;10.20;;;12.30;99.90;;;;;;5096440;28;20039;-79
2022/05/25 05:35:13;;;;;;;14.98;11.38;;;12.30;99.90;;;;;;5094804;28;20021;-78
2022/05/25 05:37:48;;;;;;;12.25;11.10;;;12.30;99.90;;;;;;5094975;28;20028;-78
2022/05/25 05:40:16;;;;;;;13.75;10.65;;;12.40;99.90;;;;;;5092171;28;20067;-78
2022/05/25 05:42:43;;;;;;;12.73;10.82;;;12.40;99.90;;;;;;5093239;28;20376;-77
2022/05/25 05:45:16;;;;;;;15.43;11.30;;;12.50;99.90;;;;;;5092842;28;20055;-79
2022/05/25 05:47:47;;;;;;;18.90;11.23;;;12.60;99.90;;;;;;5093407;28;20020;-80
2022/05/25 05:50:13;;;;;;;18.25;11.68;;;12.60;99.90;;;;;;5094048;28;20436;-80
2022/05/25 05:52:39;;;;;;;15.60;11.38;;;12.60;99.90;;;;;;5093796;28;20016;-79
2022/05/25 05:55:05;;;;;;;14.32;11.90;;;12.70;99.90;;;;;;5092477;28;20145;-80
2022/05/25 05:57:34;;;;;;;24.23;11.63;;;12.80;99.90;;;;;;5092479;28;20095;-76
2022/05/25 06:00:04;;;;;;;17.15;10.15;;;12.80;99.90;;;;;;5073428;28;20324;-78
2022/05/25 06:02:30;;;;;;;12.75;10.80;;;13.00;99.90;;;;;;5091568;28;20028;-78
2022/05/25 06:04:55;;;;;;;15.43;11.70;;;13.20;99.90;;;;;;5091999;28;20422;-77
2022/05/25 06:07:21;;;;;;;13.35;10.93;;;13.30;99.90;;;;;;5092130;28;20051;-78
2022/05/25 06:09:46;;;;;;;16.83;10.98;;;13.50;99.90;;;;;;5091368;28;20057;-77
2022/05/25 06:12:14;;;;;;;12.13;11.02;;;13.60;99.90;;;;;;5091687;28;20017;-79
2022/05/25 06:14:40;;;;;;;18.95;12.35;;;13.70;99.90;;;;;;5090379;28;20067;-77
2022/05/25 06:19:51;;;;;;;20.02;14.90;;;14.00;99.90;;;;;;5091920;28;20414;-78
2022/05/25 06:22:18;;;;;;;21.92;16.63;;;14.00;99.90;;;;;;5091577;28;20103;-78
2022/05/25 06:24:47;;;;;;;27.10;16.30;;;14.10;99.90;;;;;;5092056;28;20459;-78
2022/05/25 06:27:14;;;;;;;19.88;16.30;;;14.10;99.90;;;;;;5088479;28;20056;-78
2022/05/25 06:29:48;;;;;;;24.95;16.17;;;14.20;99.90;;;;;;5091830;28;20016;-78
2022/05/25 06:32:16;;;;;;;21.25;16.58;;;14.30;99.90;;;;;;5089681;28;20099;-78
2022/05/25 06:34:47;;;;;;;24.13;17.40;;;14.40;99.90;;;;;;5091060;28;20089;-74
2022/05/25 06:37:16;;;;;;;34.97;18.65;;;14.40;99.90;;;;;;5087828;28;20016;-74
2022/05/25 06:39:44;;;;;;;32.10;18.48;;;14.50;99.90;;;;;;5090570;28;20097;-74
2022/05/25 06:42:10;;;;;;;27.95;18.20;;;14.60;99.90;;;;;;5090714;28;20016;-75
2022/05/25 06:44:36;;;;;;;29.35;18.30;;;14.60;99.90;;;;;;5091044;28;20096;-73
2022/05/25 06:47:03;;;;;;;28.02;18.35;;;14.50;99.90;;;;;;5091684;28;20022;-74
2022/05/25 06:49:28;;;;;;;21.15;17.23;;;14.50;99.90;;;;;;5091715;28;20066;-74
2022/05/25 06:51:54;;;;;;;26.10;18.60;;;14.50;99.90;;;;;;5090725;28;20472;-74
2022/05/25 06:54:20;;;;;;;29.60;18.98;;;14.50;99.90;;;;;;5091624;28;20070;-74
2022/05/25 06:56:46;;;;;;;25.50;17.65;;;14.50;99.90;;;;;;5091866;28;20028;-74
2022/05/25 06:59:12;;;;;;;25.73;18.60;;;14.60;99.90;;;;;;5087854;28;20043;-73
2022/05/25 07:01:40;;;;;;;32.38;19.85;;;14.70;99.90;;;;;;5091426;28;20028;-73
2022/05/25 07:04:09;;;;;;;24.42;18.00;;;14.80;99.90;;;;;;5090542;28;20039;-74
2022/05/25 07:06:37;;;;;;;23.00;18.70;;;14.80;99.90;;;;;;5089195;28;20031;-73
2022/05/25 07:09:03;;;;;;;25.25;18.52;;;14.90;99.90;;;;;;5091310;28;20099;-73
2022/05/25 07:11:29;;;;;;;24.08;17.92;;;15.40;99.90;;;;;;5089275;28;20028;-74
2022/05/25 07:13:55;;;;;;;27.35;18.38;;;15.00;99.90;;;;;;5090925;28;20034;-74
2022/05/25 07:16:22;;;;;;;23.17;18.77;;;15.00;99.90;;;;;;5091091;28;20024;-76
2022/05/25 07:18:48;;;;;;;21.42;19.20;;;15.10;99.90;;;;;;5091487;28;20061;-75
2022/05/25 07:21:20;;;;;;;24.40;18.90;;;15.20;99.90;;;;;;5093616;28;20107;-73
2022/05/25 07:23:48;;;;;;;28.25;18.38;;;15.30;99.90;;;;;;5093022;28;20036;-75
2022/05/25 07:26:15;;;;;;;21.65;16.85;;;15.40;99.90;;;;;;5092404;28;20031;-75
2022/05/25 07:28:41;;;;;;;23.75;17.00;;;15.50;99.90;;;;;;5092726;28;20073;-76
2022/05/25 07:31:19;;;;;;;22.45;17.00;;;15.70;99.90;;;;;;5090631;28;20036;-75
2022/05/25 07:33:48;;;;;;;22.13;17.55;;;15.70;99.90;;;;;;5090726;28;20024;-76
2022/05/25 07:36:15;;;;;;;20.25;16.50;;;15.80;99.90;;;;;;5089999;28;20023;-75
2022/05/25 07:38:46;;;;;;;24.60;17.90;;;15.90;99.90;;;;;;5096477;28;20031;-76
2022/05/25 07:41:12;;;;;;;22.55;17.40;;;15.90;99.90;;;;;;5096515;28;20024;-76
2022/05/25 07:43:39;;;;;;;20.75;16.70;;;16.10;99.90;;;;;;5097097;28;20040;-76
2022/05/25 07:46:05;;;;;;;21.88;16.35;;;16.10;99.90;;;;;;5096580;28;20028;-77
2022/05/25 07:48:31;;;;;;;20.45;15.32;;;16.00;99.90;;;;;;5097008;28;20131;-76
2022/05/25 07:50:57;;;;;;;23.33;16.80;;;15.80;99.90;;;;;;5097589;28;20043;-78
2022/05/25 07:56:07;;;;;;;20.73;15.30;;;15.90;99.90;;;;;;5097689;28;20059;-75
2022/05/25 07:58:33;;;;;;;19.83;13.98;;;15.90;99.90;;;;;;5098044;28;20052;-78
2022/05/25 08:01:05;;;;;;;16.30;14.13;;;15.90;99.90;;;;;;5097084;28;20027;-78
2022/05/25 08:06:15;;;;;;;26.40;14.95;;;15.90;99.90;;;;;;5097618;28;20119;-80
2022/05/25 08:08:43;;;;;;;19.90;15.68;;;16.10;99.90;;;;;;5097212;28;20536;-77
2022/05/25 08:11:11;;;;;;;17.15;14.63;;;16.20;99.90;;;;;;5097903;28;20529;-76
2022/05/25 08:13:41;;;;;;;15.98;13.77;;;16.20;99.90;;;;;;5097164;28;20023;-78
2022/05/25 08:16:08;;;;;;;16.33;14.50;;;16.10;99.90;;;;;;5096494;28;20575;-77
2022/05/25 08:18:34;;;;;;;20.83;14.05;;;16.10;99.90;;;;;;5096956;28;20039;-76
2022/05/25 08:21:00;;;;;;;17.85;14.27;;;16.00;99.90;;;;;;5096225;28;20162;-77
2022/05/25 08:23:26;;;;;;;21.80;17.00;;;16.00;99.90;;;;;;5096489;28;20499;-76
2022/05/25 08:25:51;;;;;;;37.38;21.13;;;16.00;99.90;;;;;;5096634;28;20020;-76
2022/05/25 08:28:17;;;;;;;23.02;17.58;;;16.10;99.90;;;;;;5096560;28;20024;-77
2022/05/25 08:30:45;;;;;;;15.02;12.40;;;16.20;99.90;;;;;;5097744;28;20024;-76
2022/05/25 08:33:11;;;;;;;12.55;10.88;;;16.40;99.90;;;;;;5096911;28;20024;-77
2022/05/25 08:35:37;;;;;;;10.00;8.52;;;16.50;99.90;;;;;;5096940;28;20126;-76
2022/05/25 08:38:03;;;;;;;9.68;7.93;;;16.60;99.90;;;;;;5096056;28;20060;-75
2022/05/25 08:40:31;;;;;;;11.05;8.07;;;16.70;99.90;;;;;;5096352;28;20077;-76
2022/05/25 08:43:12;;;;;;;9.77;8.43;;;16.80;99.90;;;;;;5094666;28;20468;-76
2022/05/25 08:45:42;;;;;;;;;;;16.90;99.90;;;;;;5096661;28;20089;-75
2022/05/25 08:48:11;;;;;;;10.45;7.03;;;17.00;99.90;;;;;;5095472;28;19912;-76
2022/05/25 08:50:37;;;;;;;10.98;6.40;;;17.10;99.90;;;;;;5094454;28;20063;-76
2022/05/25 08:53:03;;;;;;;8.13;5.72;;;17.10;99.90;;;;;;5095936;28;20020;-76
2022/05/25 08:55:50;;;;;;;5.97;4.03;;;17.00;99.90;;;;;;5095928;28;20028;-75
2022/05/25 08:58:16;;;;;;;3.72;2.55;;;17.00;99.90;;;;;;5094981;28;20044;-75
2022/05/25 09:00:44;;;;;;;3.83;2.60;;;17.10;99.90;;;;;;5096262;28;20062;-76
2022/05/25 09:03:24;;;;;;;4.60;2.90;;;17.20;99.90;;;;;;5096053;28;20034;-74
2022/05/25 09:06:00;;;;;;;8.85;2.28;;;17.10;99.90;;;;;;5095778;28;20017;-76
2022/05/25 09:08:39;;;;;;;6.72;2.10;;;17.70;99.90;;;;;;5096338;28;20384;-76
2022/05/25 09:11:10;;;;;;;3.47;2.00;;;17.30;99.90;;;;;;5095654;28;20110;-76
2022/05/25 09:13:57;;;;;;;3.65;1.65;;;17.30;99.90;;;;;;5096507;28;20036;-76
2022/05/25 09:16:25;;;;;;;4.32;1.42;;;17.30;99.90;;;;;;5075913;28;20059;-77
2022/05/25 09:19:13;;;;;;;7.60;2.15;;;17.50;99.90;;;;;;5073585;28;20365;-76
2022/05/25 09:21:55;;;;;;;1.50;1.40;;;17.40;99.90;;;;;;5092710;28;20028;-75
2022/05/25 09:24:23;;;;;;;3.13;1.48;;;17.50;99.90;;;;;;5095001;28;20032;-76
2022/05/25 09:26:50;;;;;;;7.68;1.90;;;17.30;99.90;;;;;;5094711;28;20063;-75
2022/05/25 09:29:17;;;;;;;1.90;1.25;;;17.30;99.90;;;;;;5096065;28;20024;-77
2022/05/25 09:32:12;;;;;;;1.70;1.25;;;17.30;99.90;;;;;;5095472;28;20032;-76
2022/05/25 09:34:44;;;;;;;2.33;1.30;;;17.50;99.90;;;;;;5095941;28;20107;-75
2022/05/25 09:37:49;;;;;;;2.70;1.45;;;17.50;99.90;;;;;;5095031;28;20123;-75
2022/05/25 09:40:15;;;;;;;5.22;1.80;;;17.50;99.90;;;;;;5094658;28;20464;-77
2022/05/25 09:42:40;;;;;;;2.05;1.13;;;17.40;99.90;;;;;;5094731;28;20035;-74
2022/05/25 09:45:38;;;;;;;3.97;1.27;;;17.50;99.90;;;;;;5094323;28;20073;-75
2022/05/25 09:48:17;;;;;;;3.10;1.20;;;17.50;99.90;;;;;;5088260;28;20032;-75
2022/05/25 09:50:46;;;;;;;2.20;1.40;;;17.50;99.90;;;;;;5094818;28;20024;-75
2022/05/25 09:53:14;;;;;;;5.10;0.93;;;17.40;99.90;;;;;;5092983;28;20024;-75
2022/05/25 09:55:44;;;;;;;4.28;1.27;;;17.20;99.90;;;;;;5092085;28;20040;-75
2022/05/25 09:58:14;;;;;;;;;;;17.10;99.90;;;;;;5093631;28;20070;-74
2022/05/25 10:00:50;;;;;;;3.53;1.30;;;17.00;99.90;;;;;;5092276;28;19962;-74
2022/05/25 10:03:32;;;;;;;1.70;1.45;;;17.00;99.90;;;;;;5091758;28;20101;-74
2022/05/25 10:06:01;;;;;;;3.40;1.20;;;17.00;99.90;;;;;;5093695;28;20024;-77
2022/05/25 10:08:36;;;;;;;3.10;1.15;;;17.00;99.90;;;;;;5092743;28;20085;-76
2022/05/25 10:11:29;;;;;;;3.97;1.30;;;17.30;99.90;;;;;;5091926;28;20340;-75
2022/05/25 10:13:57;;;;;;;2.20;0.90;;;17.50;99.90;;;;;;5090348;28;20096;-76
2022/05/25 10:16:29;;;;;;;2.28;0.95;;;17.80;99.90;;;;;;5093737;28;20038;-76
2022/05/25 10:18:55;;;;;;;4.05;1.20;;;18.00;99.90;;;;;;5082649;28;20028;-75
2022/05/25 10:21:29;;;;;;;2.67;1.00;;;18.10;99.50;;;;;;5079312;28;20095;-77
2022/05/25 10:23:57;;;;;;;5.57;1.20;;;18.30;99.90;;;;;;5078429;28;20033;-76
2022/05/25 10:26:38;;;;;;;1.67;0.80;;;18.50;99.90;;;;;;5080771;28;20032;-74
2022/05/25 10:29:10;;;;;;;3.53;0.77;;;18.70;99.20;;;;;;5083836;28;20396;-75
2022/05/25 10:37:25;;;;;;;2.25;1.00;;;18.70;98.30;;;;;;5073319;28;20044;-75
2022/05/25 10:39:53;;;;;;;1.75;0.55;;;18.70;98.80;;;;;;5073027;28;20024;-76
2022/05/25 10:42:25;;;;;;;1.05;0.60;;;18.60;98.60;;;;;;5072654;28;20048;-76
2022/05/25 10:44:59;;;;;;;3.90;0.70;;;18.50;97.40;;;;;;5073470;28;20032;-76
2022/05/25 10:47:34;;;;;;;5.07;0.80;;;18.50;97.60;;;;;;5073623;28;20044;-76
2022/05/25 10:50:03;;;;;;;16.88;1.00;;;18.50;97.80;;;;;;5073007;28;20025;-75
2022/05/25 10:52:35;;;;;;;3.13;0.60;;;18.40;97.70;;;;;;5072730;28;20464;-75
2022/05/25 10:55:01;;;;;;;2.22;0.68;;;18.70;97.20;;;;;;5073316;28;20028;-77
2022/05/25 10:57:48;;;;;;;5.10;0.70;;;18.30;97.70;;;;;;5084815;28;20107;-75
2022/05/25 11:00:23;;;;;;;3.13;0.93;;;18.30;97.50;;;;;;5092541;28;20472;-76
2022/05/25 11:03:16;;;;;;;3.15;0.70;;;18.40;97.10;;;;;;5090512;28;20490;-76
2022/05/25 11:05:51;;;;;;;3.63;0.65;;;18.50;97.20;;;;;;5092352;28;20376;-76
2022/05/25 11:08:42;;;;;;;1.30;0.50;;;18.60;96.50;;;;;;5092810;28;20357;-75
2022/05/25 11:11:30;;;;;;;2.00;0.70;;;18.50;96.10;;;;;;5092653;28;20039;-75
2022/05/25 11:14:18;;;;;;;3.03;1.05;;;18.70;97.50;;;;;;5080200;28;20057;-76
2022/05/25 11:16:55;;;;;;;3.42;1.08;;;18.70;97.80;;;;;;5093766;28;20059;-76
2022/05/25 11:19:36;;;;;;;4.45;1.10;;;18.70;98.30;;;;;;5091897;28;20479;-77
2022/05/25 11:22:26;;;;;;;2.42;0.85;;;18.60;97.70;;;;;;5092662;28;20446;-76
2022/05/25 11:25:14;;;;;;;3.60;0.98;;;18.60;97.30;;;;;;5092150;28;20046;-77
2022/05/25 11:28:02;;;;;;;2.63;0.63;;;18.50;96.60;;;;;;5093612;28;20029;-76
2022/05/25 11:30:44;;;;;;;5.05;0.70;;;18.60;97.40;;;;;;5093125;28;20028;-75
2022/05/25 11:33:21;;;;;;;1.58;0.77;;;18.40;97.50;;;;;;5092044;28;20024;-76
2022/05/25 11:36:08;;;;;;;2.75;0.70;;;18.40;96.80;;;;;;5093160;28;20073;-76
2022/05/25 11:38:51;;;;;;;4.22;0.70;;;18.40;97.80;;;;;;5092730;28;20446;-75
2022/05/25 11:41:24;;;;;;;1.45;0.60;;;18.40;97.20;;;;;;5093331;28;20024;-75
2022/05/25 11:44:18;;;;;;;2.40;0.85;;;18.60;97.40;;;;;;5092637;28;20502;-74
2022/05/25 11:46:46;;;;;;;2.95;1.20;;;18.70;97.60;;;;;;5092582;28;20024;-75
2022/05/25 11:49:50;;;;;;;4.72;0.90;;;18.80;97.20;;;;;;5093055;28;20028;-75
2022/05/25 11:52:45;;;;;;;4.05;1.15;;;18.90;97.60;;;;;;5092302;28;20024;-76
2022/05/25 11:55:38;;;;;;;2.85;0.68;;;18.90;97.70;;;;;;5092897;28;20054;-75
2022/05/25 11:58:31;;;;;;;1.88;0.88;;;18.90;97.50;;;;;;5091904;28;20048;-76
2022/05/25 12:01:18;;;;;;;3.85;1.20;;;18.70;98.00;;;;;;5091241;28;20028;-75
2022/05/25 12:03:47;;;;;;;5.03;1.67;;;18.30;98.40;;;;;;5091961;28;20039;-78
2022/05/25 12:06:49;;;;;;;4.90;1.42;;;18.10;99.20;;;;;;5091833;28;20477;-75
2022/05/25 12:09:30;;;;;;;4.38;1.95;;;17.90;99.40;;;;;;5091813;28;20039;-75
2022/05/25 12:12:09;;;;;;;3.10;1.38;;;17.90;99.90;;;;;;5092071;28;20448;-76
2022/05/25 12:14:54;;;;;;;6.20;1.27;;;18.10;99.90;;;;;;5090487;28;20376;-74
2022/05/25 12:17:49;;;;;;;10.15;1.60;;;18.30;99.80;;;;;;5093768;28;20108;-76
2022/05/25 12:20:21;;;;;;;8.75;2.05;;;18.60;99.60;;;;;;5077346;28;20028;-75
2022/05/25 12:22:52;;;;;;;9.40;2.00;;;18.70;98.40;;;;;;5091951;28;20032;-75
2022/05/25 12:25:19;;;;;;;6.35;2.10;;;18.80;98.00;;;;;;5095544;28;20035;-75
2022/05/25 12:27:48;;;;;;;4.32;1.90;;;19.10;98.00;;;;;;5096382;28;20047;-75
2022/05/25 12:30:19;;;;;;;2.83;1.80;;;19.10;98.00;;;;;;5094329;28;20108;-75
2022/05/25 12:32:48;;;;;;;4.07;1.65;;;19.30;98.10;;;;;;5092400;28;20476;-75
2022/05/25 12:35:16;;;;;;;3.85;2.00;;;19.30;98.70;;;;;;5095232;28;20103;-75
2022/05/25 12:37:45;;;;;;;2.95;1.60;;;19.60;97.80;;;;;;5096334;28;20397;-75
2022/05/25 12:40:25;;;;;;;6.35;1.95;;;19.80;98.40;;;;;;5094318;28;20038;-75
2022/05/25 12:42:51;;;;;;;3.90;1.55;;;20.10;97.90;;;;;;5094140;28;20047;-76
2022/05/25 12:48:38;;;;;;;3.78;1.55;;;20.50;95.70;;;;;;5093911;28;20089;-76
2022/05/25 12:51:24;;;;;;;2.50;1.30;;;20.60;95.70;;;;;;5087175;28;20032;-75
2022/05/25 12:53:50;;;;;;;7.38;1.58;;;20.30;95.70;;;;;;5076165;28;20032;-77
2022/05/25 12:56:18;;;;;;;10.00;1.90;;;20.10;95.90;;;;;;5093582;28;20511;-75
2022/05/25 12:58:47;;;;;;;4.50;1.38;;;20.00;96.20;;;;;;5084146;28;20048;-75
2022/05/25 13:01:22;;;;;;;3.13;1.40;;;19.90;95.90;;;;;;5086093;28;20024;-76
2022/05/25 13:03:47;;;;;;;4.30;1.55;;;19.80;96.20;;;;;;5095933;28;20028;-78
2022/05/25 13:06:18;;;;;;;11.18;2.15;;;19.80;97.20;;;;;;5096562;28;20086;-75
2022/05/25 13:08:46;;;;;;;5.45;1.55;;;19.80;96.50;;;;;;5096512;28;20081;-77
2022/05/25 13:11:34;;;;;;;4.13;1.42;;;19.70;96.10;;;;;;5093355;28;20035;-76
2022/05/25 13:14:07;;;;;;;8.05;1.83;;;19.60;97.00;;;;;;5093658;28;20024;-77
2022/05/25 13:16:51;;;;;;;6.40;1.63;;;19.60;96.90;;;;;;5091270;28;20411;-77
2022/05/25 13:19:33;;;;;;;2.15;1.30;;;19.60;97.40;;;;;;5094262;28;20036;-76
2022/05/25 13:22:17;;;;;;;7.18;1.65;;;19.70;97.80;;;;;;5092551;28;20111;-78
2022/05/25 13:25:06;;;;;;;6.28;2.10;;;19.70;98.70;;;;;;5092632;28;20036;-76
2022/05/25 13:27:53;;;;;;;5.70;1.60;;;19.70;98.90;;;;;;5094277;28;20020;-77